createdAt,value
2023-04-10T00:02:00.571Z,12.90
2023-04-10T00:04:28.384Z,11.87
2023-04-10T00:06:55.443Z,12.67
2023-04-10T00:09:22.046Z,13.27
2023-04-10T00:11:48.635Z,13.27
2023-04-10T00:14:15.350Z,14.53
2023-04-10T00:16:41.976Z,13.27
2023-04-10T00:19:08.692Z,12.80
2023-04-10T00:21:38.024Z,13.40
2023-04-10T00:24:05.250Z,14.80
2023-04-10T00:26:31.805Z,13.93
2023-04-10T00:28:58.486Z,15.07
2023-04-10T00:31:25.167Z,16.15
2023-04-10T00:33:52.022Z,13.17
2023-04-10T00:36:19.440Z,12.47
2023-04-10T00:38:46.459Z,16.43
2023-04-10T00:41:13.052Z,14.27
2023-04-10T00:43:39.652Z,12.73
2023-04-10T00:46:07.226Z,12.80
2023-04-10T00:48:34.760Z,13.47
2023-04-10T00:51:01.728Z,14.50
2023-04-10T00:53:29.552Z,14.60
2023-04-10T00:55:57.085Z,14.17
2023-04-10T00:58:23.698Z,15.43
2023-04-10T01:00:51.572Z,14.33
2023-04-10T01:03:19.759Z,15.40
2023-04-10T01:05:57.063Z,16.30
2023-04-10T01:08:48.480Z,14.63
2023-04-10T01:11:21.772Z,14.90
2023-04-10T01:13:52.777Z,15.60
2023-04-10T01:16:27.299Z,16.20
2023-04-10T01:18:57.675Z,14.43
2023-04-10T01:21:25.945Z,14.73
2023-04-10T01:24:11.653Z,17.10
2023-04-10T01:26:53.937Z,15.87
2023-04-10T01:29:21.268Z,14.90
2023-04-10T01:31:56.689Z,15.83
2023-04-10T01:34:28.549Z,16.80
2023-04-10T01:37:01.604Z,14.93
2023-04-10T01:39:28.697Z,16.00
2023-04-10T01:41:56.578Z,16.03
2023-04-10T01:44:27.561Z,15.23
2023-04-10T01:46:55.718Z,16.00
2023-04-10T01:49:24.418Z,15.50
2023-04-10T01:51:51.854Z,15.37
2023-04-10T01:54:18.892Z,17.27
2023-04-10T01:56:45.874Z,17.73
2023-04-10T01:59:13.170Z,16.03
2023-04-10T02:01:40.282Z,17.40
2023-04-10T02:04:07.335Z,19.93
2023-04-10T02:06:40.577Z,16.03
2023-04-10T02:09:22.985Z,17.43
2023-04-10T02:11:55.708Z,14.97
2023-04-10T02:14:23.096Z,17.07
2023-04-10T02:16:51.978Z,16.57
2023-04-10T02:19:20.285Z,17.67
2023-04-10T02:21:47.773Z,16.93
2023-04-10T02:24:14.859Z,16.33
2023-04-10T02:26:45.825Z,15.73
2023-04-10T02:29:13.103Z,16.73
2023-04-10T02:31:40.867Z,16.57
2023-04-10T02:34:08.121Z,15.70
2023-04-10T02:36:35.916Z,18.00
2023-04-10T02:39:03.626Z,17.50
2023-04-10T02:41:30.868Z,16.77
2023-04-10T02:43:57.907Z,14.67
2023-04-10T02:46:24.935Z,17.37
2023-04-10T02:48:52.955Z,17.17
2023-04-10T02:51:19.945Z,17.30
2023-04-10T02:53:47.434Z,16.27
2023-04-10T02:56:14.409Z,16.83
2023-04-10T02:58:45.442Z,18.38
2023-04-10T03:01:13.072Z,17.03
2023-04-10T03:03:40.421Z,16.37
2023-04-10T03:06:08.276Z,18.90
2023-04-10T03:08:35.534Z,17.40
2023-04-10T03:11:02.585Z,17.50
2023-04-10T03:13:29.641Z,18.50
2023-04-10T03:15:56.768Z,18.10
2023-04-10T03:18:23.881Z,15.47
2023-04-10T03:20:50.911Z,16.13
2023-04-10T03:23:17.900Z,16.40
2023-04-10T03:25:44.910Z,17.23
2023-04-10T03:28:11.944Z,17.33
2023-04-10T03:30:39.190Z,15.03
2023-04-10T03:33:06.208Z,17.67
2023-04-10T03:35:33.283Z,16.67
2023-04-10T03:38:00.278Z,16.83
2023-04-10T03:40:27.343Z,15.27
2023-04-10T03:42:54.318Z,15.90
2023-04-10T03:45:21.364Z,16.17
2023-04-10T03:47:48.363Z,16.93
2023-04-10T03:50:15.582Z,16.40
2023-04-10T03:52:42.618Z,17.80
2023-04-10T03:55:09.815Z,16.90
2023-04-10T03:57:36.804Z,16.97
2023-04-10T04:00:05.612Z,16.03
2023-04-10T04:02:32.756Z,18.13
2023-04-10T04:04:59.866Z,18.17
2023-04-10T04:07:26.809Z,17.33
2023-04-10T04:09:56.417Z,18.40
2023-04-10T04:12:23.607Z,18.90
2023-04-10T04:14:50.652Z,18.13
2023-04-10T04:17:17.636Z,20.33
2023-04-10T04:19:44.667Z,18.83
2023-04-10T04:22:12.085Z,18.47
2023-04-10T04:24:39.070Z,19.10
2023-04-10T04:27:06.179Z,19.50
2023-04-10T04:29:33.201Z,18.73
2023-04-10T04:32:00.308Z,18.73
2023-04-10T04:34:27.367Z,17.23
2023-04-10T04:36:54.351Z,17.27
2023-04-10T04:39:23.076Z,16.30
2023-04-10T04:41:50.493Z,17.03
2023-04-10T04:44:19.701Z,15.90
2023-04-10T04:46:46.994Z,16.77
2023-04-10T04:49:13.993Z,16.83
2023-04-10T04:51:41.012Z,15.87
2023-04-10T04:54:07.998Z,16.10
2023-04-10T04:56:35.052Z,16.13
2023-04-10T04:59:02.054Z,16.17
2023-04-10T05:01:29.116Z,15.57
2023-04-10T05:03:56.286Z,16.10
2023-04-10T05:06:23.418Z,15.17
2023-04-10T05:08:50.555Z,15.23
2023-04-10T05:11:17.602Z,15.70
2023-04-10T05:13:44.666Z,16.03
2023-04-10T05:16:11.636Z,16.83
2023-04-10T05:18:38.667Z,20.37
2023-04-10T05:21:05.785Z,16.03
2023-04-10T05:23:32.732Z,15.60
2023-04-10T05:25:59.675Z,17.07
2023-04-10T05:28:26.687Z,15.00
2023-04-10T05:30:53.769Z,16.20
2023-04-10T05:33:20.892Z,17.83
2023-04-10T05:35:47.923Z,15.20
2023-04-10T05:38:14.927Z,15.73
2023-04-10T05:40:45.601Z,16.93
2023-04-10T05:43:12.695Z,14.90
2023-04-10T05:45:40.576Z,14.97
2023-04-10T05:48:07.640Z,15.87
2023-04-10T05:50:35.845Z,14.60
2023-04-10T05:53:02.846Z,13.80
2023-04-10T05:55:33.800Z,17.83
2023-04-10T05:58:00.656Z,13.70
2023-04-10T06:00:27.415Z,15.53
2023-04-10T06:02:54.182Z,13.97
2023-04-10T06:05:21.140Z,15.77
2023-04-10T06:07:47.764Z,14.23
2023-04-10T06:10:14.305Z,14.10
2023-04-10T06:12:40.898Z,14.30
2023-04-10T06:15:08.221Z,13.87
2023-04-10T06:17:34.754Z,15.37
2023-04-10T06:20:04.535Z,14.33
2023-04-10T06:22:31.097Z,13.40
2023-04-10T06:24:57.797Z,13.23
2023-04-10T06:27:24.415Z,14.10
2023-04-10T06:29:51.092Z,13.60
2023-04-10T06:32:17.666Z,13.93
2023-04-10T06:34:44.564Z,15.03
2023-04-10T06:37:11.059Z,14.13
2023-04-10T06:39:37.969Z,14.68
2023-04-10T06:42:04.689Z,14.53
2023-04-10T06:44:31.293Z,14.20
2023-04-10T06:46:57.912Z,14.27
2023-04-10T06:49:24.592Z,14.40
2023-04-10T06:51:51.316Z,13.53
2023-04-10T06:54:17.838Z,13.63
2023-04-10T06:56:44.398Z,16.13
2023-04-10T06:59:10.946Z,15.73
2023-04-10T07:01:37.594Z,14.83
2023-04-10T07:04:04.347Z,13.27
2023-04-10T07:06:31.296Z,14.00
2023-04-10T07:08:57.863Z,13.43
2023-04-10T07:11:24.425Z,13.63
2023-04-10T07:13:53.765Z,12.10
2023-04-10T07:16:20.736Z,12.67
2023-04-10T07:18:47.693Z,11.80
2023-04-10T07:21:14.352Z,12.73
2023-04-10T07:23:40.992Z,11.67
2023-04-10T07:26:07.692Z,11.53
2023-04-10T07:28:34.354Z,10.17
2023-04-10T07:31:01.405Z,9.50
2023-04-10T07:33:28.271Z,9.07
2023-04-10T07:35:54.883Z,8.80
2023-04-10T07:38:21.404Z,9.30
2023-04-10T07:40:48.215Z,7.53
2023-04-10T07:43:14.795Z,8.27
2023-04-10T07:45:41.558Z,8.30
2023-04-10T07:48:08.526Z,8.47
2023-04-10T07:50:36.025Z,8.63
2023-04-10T07:53:07.524Z,8.13
2023-04-10T07:55:44.930Z,8.30
2023-04-10T07:58:11.543Z,8.27
2023-04-10T08:00:38.106Z,8.60
2023-04-10T08:03:05.875Z,7.27
2023-04-10T08:05:34.191Z,7.67
2023-04-10T08:08:00.767Z,7.00
2023-04-10T08:10:27.334Z,7.63
2023-04-10T08:12:53.932Z,8.17
2023-04-10T08:15:21.042Z,7.03
2023-04-10T08:17:47.586Z,7.73
2023-04-10T08:20:14.188Z,7.63
2023-04-10T08:22:40.712Z,8.47
2023-04-10T08:25:07.514Z,6.40
2023-04-10T08:27:34.158Z,6.70
2023-04-10T08:30:00.722Z,7.03
2023-04-10T08:32:28.115Z,7.03
2023-04-10T08:34:54.920Z,6.03
2023-04-10T08:37:21.579Z,5.67
2023-04-10T08:39:48.436Z,6.53
2023-04-10T08:42:15.371Z,6.03
2023-04-10T08:44:42.418Z,7.87
2023-04-10T08:47:10.152Z,5.60
2023-04-10T08:49:45.004Z,5.63
2023-04-10T08:52:17.760Z,6.37
2023-04-10T08:54:50.216Z,4.73
2023-04-10T08:57:20.406Z,7.30
2023-04-10T08:59:51.490Z,5.80
2023-04-10T09:02:19.183Z,5.30
2023-04-10T09:04:49.206Z,5.43
2023-04-10T09:07:16.450Z,5.60
2023-04-10T09:09:43.761Z,5.00
2023-04-10T09:12:10.777Z,8.97
2023-04-10T09:14:38.147Z,4.80
2023-04-10T09:17:23.990Z,4.70
2023-04-10T09:19:53.936Z,4.23
2023-04-10T09:22:34.180Z,4.40
2023-04-10T09:25:01.661Z,4.37
2023-04-10T09:27:31.486Z,4.13
2023-04-10T09:29:59.220Z,4.30
2023-04-10T09:32:42.733Z,4.27
2023-04-10T09:35:10.977Z,4.17
2023-04-10T09:37:38.428Z,3.77
2023-04-10T09:40:05.858Z,4.50
2023-04-10T09:42:37.221Z,4.20
2023-04-10T09:45:05.417Z,4.07
2023-04-10T09:47:34.231Z,3.57
2023-04-10T09:50:01.541Z,4.30
2023-04-10T09:52:29.965Z,3.80
2023-04-10T09:54:58.300Z,3.63
2023-04-10T09:57:26.235Z,3.80
2023-04-10T09:59:54.338Z,3.60
2023-04-10T10:02:22.413Z,3.80
2023-04-10T10:04:50.340Z,5.23
2023-04-10T10:07:18.342Z,4.40
2023-04-10T10:09:46.337Z,3.33
2023-04-10T10:12:13.942Z,4.23
2023-04-10T10:15:01.309Z,3.40
2023-04-10T10:17:35.379Z,3.67
2023-04-10T10:20:08.571Z,3.50
2023-04-10T10:22:36.394Z,3.20
2023-04-10T10:25:03.806Z,3.70
2023-04-10T10:27:37.220Z,3.40
2023-04-10T10:30:11.846Z,3.47
2023-04-10T10:32:46.388Z,3.87
2023-04-10T10:35:13.552Z,3.40
2023-04-10T10:37:42.601Z,3.30
2023-04-10T10:40:21.429Z,3.40
2023-04-10T10:42:56.840Z,3.47
2023-04-10T10:45:31.683Z,3.27
2023-04-10T10:47:58.714Z,3.30
2023-04-10T10:50:25.775Z,3.43
2023-04-10T10:52:54.014Z,3.50
2023-04-10T10:55:28.033Z,3.07
2023-04-10T10:57:55.854Z,2.90
2023-04-10T11:00:24.273Z,2.43
2023-04-10T11:03:10.436Z,2.70
2023-04-10T11:05:55.104Z,2.30
2023-04-10T11:08:37.040Z,2.60
2023-04-10T11:11:08.074Z,2.30
2023-04-10T11:13:35.775Z,2.20
2023-04-10T11:16:03.710Z,2.27
2023-04-10T11:18:46.037Z,2.40
2023-04-10T11:21:14.044Z,2.00
2023-04-10T11:23:54.080Z,2.30
2023-04-10T11:26:39.912Z,2.13
2023-04-10T11:29:07.500Z,2.30
2023-04-10T11:31:34.772Z,2.10
2023-04-10T11:34:01.764Z,2.20
2023-04-10T11:36:28.858Z,2.00
2023-04-10T11:38:59.937Z,1.90
2023-04-10T11:41:31.170Z,2.30
2023-04-10T11:43:59.007Z,2.30
2023-04-10T11:46:26.201Z,2.00
2023-04-10T11:49:00.223Z,2.90
2023-04-10T11:51:28.154Z,1.93
2023-04-10T11:54:04.888Z,2.07
2023-04-10T11:56:31.925Z,2.00
2023-04-10T11:58:58.921Z,1.83
2023-04-10T12:01:26.120Z,1.87
2023-04-10T12:03:53.346Z,1.60
2023-04-10T12:06:20.930Z,2.13
2023-04-10T12:08:51.617Z,1.83
2023-04-10T12:11:20.443Z,1.90
2023-04-10T12:13:48.229Z,1.87
2023-04-10T12:16:15.606Z,1.80
2023-04-10T12:18:42.875Z,1.93
2023-04-10T12:21:10.061Z,1.73
2023-04-10T12:23:38.957Z,2.07
2023-04-10T12:26:10.537Z,1.80
2023-04-10T12:28:38.243Z,1.97
2023-04-10T12:31:05.507Z,1.93
2023-04-10T12:33:33.083Z,2.03
2023-04-10T12:36:00.243Z,1.70
2023-04-10T12:38:43.240Z,1.63
2023-04-10T12:41:11.276Z,1.43
2023-04-10T12:43:42.436Z,1.60
2023-04-10T12:46:10.752Z,1.60
2023-04-10T12:48:37.885Z,1.60
2023-04-10T12:51:05.077Z,1.50
2023-04-10T12:53:32.821Z,1.50
2023-04-10T12:56:04.827Z,2.67
2023-04-10T12:58:32.064Z,1.20
2023-04-10T13:01:00.369Z,1.57
2023-04-10T13:03:27.743Z,1.30
2023-04-10T13:05:55.036Z,1.50
2023-04-10T13:08:22.897Z,1.40
2023-04-10T13:10:50.244Z,1.43
2023-04-10T13:13:17.579Z,1.20
2023-04-10T13:15:45.116Z,1.83
2023-04-10T13:18:12.166Z,1.87
2023-04-10T13:20:40.601Z,1.73
2023-04-10T13:23:08.133Z,1.50
2023-04-10T13:25:39.420Z,1.50
2023-04-10T13:28:10.886Z,1.50
2023-04-10T13:30:38.688Z,1.43
2023-04-10T13:33:05.803Z,1.50
2023-04-10T13:35:32.916Z,1.70
2023-04-10T13:38:00.805Z,1.70
2023-04-10T13:40:27.889Z,2.10
2023-04-10T13:42:54.882Z,1.80
2023-04-10T13:45:21.950Z,1.90
2023-04-10T13:47:48.995Z,1.50
2023-04-10T13:50:16.111Z,1.80
2023-04-10T13:52:43.094Z,1.70
2023-04-10T13:55:10.586Z,1.70
2023-04-10T13:57:37.615Z,1.90
2023-04-10T14:00:04.926Z,2.80
2023-04-10T14:02:32.187Z,2.00
2023-04-10T14:04:59.346Z,1.90
2023-04-10T14:07:26.357Z,2.20
2023-04-10T14:09:53.341Z,1.80
2023-04-10T14:12:21.998Z,1.70
2023-04-10T14:14:49.054Z,1.73
2023-04-10T14:17:16.087Z,1.80
2023-04-10T14:19:43.280Z,1.70
2023-04-10T14:22:10.421Z,2.00
2023-04-10T14:24:37.434Z,1.90
2023-04-10T14:27:04.573Z,1.77
2023-04-10T14:32:01.756Z,2.20
2023-04-10T14:34:28.840Z,2.13
2023-04-10T14:36:56.099Z,2.03
2023-04-10T14:39:24.495Z,1.90
2023-04-10T14:41:51.686Z,2.60
2023-04-10T14:44:18.763Z,2.10
2023-04-10T14:46:46.158Z,3.77
2023-04-10T14:49:13.974Z,1.83
2023-04-10T14:51:43.637Z,1.90
2023-04-10T14:54:10.854Z,1.57
2023-04-10T14:56:37.994Z,2.00
2023-04-10T14:59:05.167Z,1.90
2023-04-10T15:01:32.174Z,1.80
2023-04-10T15:03:59.285Z,2.17
2023-04-10T15:06:28.145Z,1.80
2023-04-10T15:08:56.436Z,5.40
2023-04-10T15:11:23.580Z,1.77
2023-04-10T15:13:50.790Z,2.20
2023-04-10T15:16:17.895Z,2.20
2023-04-10T15:18:47.696Z,1.90
2023-04-10T15:21:14.767Z,2.17
2023-04-10T15:23:41.759Z,2.20
2023-04-10T15:26:15.522Z,1.90
2023-04-10T15:28:43.138Z,1.60
2023-04-10T15:31:10.928Z,1.77
2023-04-10T15:33:39.247Z,2.00
2023-04-10T15:36:07.233Z,2.07
2023-04-10T15:38:37.205Z,1.90
2023-04-10T15:41:10.916Z,1.90
2023-04-10T15:43:38.372Z,2.27
2023-04-10T15:46:05.929Z,2.03
2023-04-10T15:48:33.017Z,2.53
2023-04-10T15:51:03.651Z,1.97
2023-04-10T15:53:30.682Z,2.10
2023-04-10T15:55:57.683Z,1.93
2023-04-10T15:58:24.666Z,1.93
2023-04-10T16:00:51.629Z,1.80
2023-04-10T16:03:18.886Z,1.97
2023-04-10T16:05:45.989Z,1.97
2023-04-10T16:08:13.037Z,2.10
2023-04-10T16:10:40.107Z,1.90
2023-04-10T16:13:07.100Z,2.30
2023-04-10T16:15:35.317Z,2.20
2023-04-10T16:18:03.431Z,2.70
2023-04-10T16:20:30.580Z,2.40
2023-04-10T16:22:58.145Z,2.23
2023-04-10T16:25:26.962Z,3.20
2023-04-10T16:27:54.355Z,2.37
2023-04-10T16:30:21.540Z,3.43
2023-04-10T16:32:49.004Z,2.40
2023-04-10T16:35:18.065Z,2.10
2023-04-10T16:37:45.708Z,2.20
2023-04-10T16:40:13.056Z,2.30
2023-04-10T16:42:40.543Z,2.10
2023-04-10T16:45:08.391Z,2.30
2023-04-10T16:47:35.828Z,2.37
2023-04-10T16:50:02.938Z,2.20
2023-04-10T16:52:32.000Z,2.50
2023-04-10T16:54:59.020Z,2.30
2023-04-10T16:57:26.027Z,2.30
2023-04-10T16:59:57.279Z,2.47
2023-04-10T17:02:25.016Z,2.77
2023-04-10T17:04:53.690Z,3.60
2023-04-10T17:07:20.407Z,2.47
2023-04-10T17:09:46.985Z,2.70
2023-04-10T17:12:13.597Z,2.27
2023-04-10T17:14:40.234Z,2.17
2023-04-10T17:17:06.827Z,2.37
2023-04-10T17:19:33.387Z,2.40
2023-04-10T17:22:00.084Z,2.27
2023-04-10T17:24:26.681Z,2.07
2023-04-10T17:26:53.224Z,2.20
2023-04-10T17:29:19.768Z,1.77
2023-04-10T17:31:46.355Z,1.70
2023-04-10T17:34:13.262Z,2.30
2023-04-10T17:36:40.140Z,2.03
2023-04-10T17:39:06.753Z,3.27
2023-04-10T17:41:33.294Z,1.83
2023-04-10T17:43:59.860Z,1.93
2023-04-10T17:46:26.463Z,1.80
2023-04-10T17:48:53.408Z,2.10
2023-04-10T17:51:20.181Z,1.70
2023-04-10T17:53:46.925Z,1.93
2023-04-10T17:56:19.613Z,2.77
2023-04-10T17:58:46.938Z,1.83
2023-04-10T18:01:21.795Z,3.43
2023-04-10T18:03:48.890Z,2.20
2023-04-10T18:06:15.812Z,2.90
2023-04-10T18:08:42.406Z,3.10
2023-04-10T18:11:09.150Z,4.50
2023-04-10T18:13:35.679Z,4.50
2023-04-10T18:16:02.362Z,2.63
2023-04-10T18:18:29.222Z,1.80
2023-04-10T18:20:55.804Z,2.37
2023-04-10T18:23:24.603Z,2.10
2023-04-10T18:25:55.118Z,2.50
2023-04-10T18:28:22.717Z,3.80
2023-04-10T18:30:50.973Z,2.80
2023-04-10T18:33:22.230Z,2.77
2023-04-10T18:35:48.830Z,2.40
2023-04-10T18:38:15.610Z,3.13
2023-04-10T18:40:42.144Z,2.67
2023-04-10T18:43:08.686Z,3.80
2023-04-10T18:45:36.379Z,2.37
2023-04-10T18:48:03.269Z,2.30
2023-04-10T18:50:33.958Z,2.20
2023-04-10T18:53:00.652Z,2.53
2023-04-10T18:55:27.214Z,2.90
2023-04-10T18:57:53.731Z,2.80
2023-04-10T19:00:20.667Z,2.97
2023-04-10T19:02:47.394Z,1.90
2023-04-10T19:05:16.463Z,2.33
2023-04-10T19:07:52.994Z,2.10
2023-04-10T19:10:27.932Z,2.40
2023-04-10T19:12:56.030Z,2.10
2023-04-10T19:15:23.093Z,2.40
2023-04-10T19:17:54.950Z,2.30
2023-04-10T19:20:49.892Z,2.83
2023-04-10T19:23:09.491Z,2.40
2023-04-10T19:25:36.565Z,4.10
2023-04-10T19:28:03.786Z,3.13
2023-04-10T19:30:30.362Z,2.30
2023-04-10T19:32:57.177Z,2.07
2023-04-10T19:35:24.053Z,2.30
2023-04-10T19:37:50.820Z,2.30
2023-04-10T19:40:20.459Z,2.30
2023-04-10T19:42:47.027Z,2.30
2023-04-10T19:45:15.715Z,2.10
2023-04-10T19:47:42.324Z,2.23
2023-04-10T19:50:09.105Z,2.10
2023-04-10T19:52:35.768Z,2.37
2023-04-10T19:55:02.453Z,2.47
2023-04-10T19:57:29.129Z,2.13
2023-04-10T19:59:55.958Z,2.50
2023-04-10T20:02:22.738Z,2.20
2023-04-10T20:04:49.923Z,2.20
2023-04-10T20:07:16.541Z,3.53
2023-04-10T20:09:43.161Z,2.30
2023-04-10T20:12:09.783Z,2.30
2023-04-10T20:14:36.443Z,2.50
2023-04-10T20:17:03.074Z,2.73
2023-04-10T20:19:29.672Z,2.40
2023-04-10T20:21:56.554Z,3.90
2023-04-10T20:24:23.153Z,2.80
2023-04-10T20:26:49.705Z,2.50
2023-04-10T20:29:16.288Z,2.53
2023-04-10T20:31:42.850Z,2.60
2023-04-10T20:34:09.519Z,3.63
2023-04-10T20:36:36.421Z,2.70
2023-04-10T20:39:02.982Z,2.80
2023-04-10T20:41:29.558Z,2.23
2023-04-10T20:43:57.325Z,2.40
2023-04-10T20:46:26.917Z,3.13
2023-04-10T20:48:59.058Z,2.53
2023-04-10T20:51:27.142Z,2.30
2023-04-10T20:53:53.909Z,2.53
2023-04-10T20:56:24.783Z,4.87
2023-04-10T20:58:53.934Z,2.97
2023-04-10T21:01:20.620Z,4.40
2023-04-10T21:03:47.365Z,2.37
2023-04-10T21:06:15.253Z,2.90
2023-04-10T21:08:41.873Z,3.10
2023-04-10T21:11:08.579Z,2.40
2023-04-10T21:13:37.897Z,2.43
2023-04-10T21:16:05.461Z,2.60
2023-04-10T21:18:32.166Z,2.43
2023-04-10T21:20:58.747Z,2.20
2023-04-10T21:23:25.334Z,2.47
2023-04-10T21:25:54.975Z,2.57
2023-04-10T21:28:21.584Z,3.78
2023-04-10T21:30:48.202Z,2.50
2023-04-10T21:33:14.826Z,2.43
2023-04-10T21:35:44.891Z,2.30
2023-04-10T21:38:14.317Z,3.33
2023-04-10T21:40:40.942Z,3.40
2023-04-10T21:43:07.526Z,2.20
2023-04-10T21:45:37.479Z,2.50
2023-04-10T21:48:04.143Z,2.87
2023-04-10T21:50:30.884Z,2.70
2023-04-10T21:52:57.556Z,2.40
2023-04-10T21:55:24.113Z,3.47
2023-04-10T21:57:50.664Z,2.20
2023-04-10T22:00:17.404Z,2.50
2023-04-10T22:02:44.423Z,2.43
2023-04-10T22:05:11.853Z,3.20
2023-04-10T22:07:38.399Z,2.20
2023-04-10T22:10:05.756Z,3.73
2023-04-10T22:12:32.417Z,2.70
2023-04-10T22:14:59.007Z,2.83
2023-04-10T22:17:25.671Z,2.10
2023-04-10T22:19:52.261Z,2.67
2023-04-10T22:22:20.486Z,3.40
2023-04-10T22:24:47.747Z,2.23
2023-04-10T22:27:14.324Z,4.23
2023-04-10T22:29:45.320Z,3.23
2023-04-10T22:32:14.227Z,2.57
2023-04-10T22:34:40.995Z,3.03
2023-04-10T22:37:07.646Z,1.80
2023-04-10T22:39:34.260Z,3.30
2023-04-10T22:42:00.800Z,4.55
2023-04-10T22:44:27.364Z,3.13
2023-04-10T22:46:53.975Z,2.20
2023-04-10T22:49:20.648Z,3.30
2023-04-10T22:51:47.151Z,3.43
2023-04-10T22:54:15.806Z,1.70
2023-04-10T22:56:44.012Z,3.33
2023-04-10T22:59:10.801Z,2.47
2023-04-10T23:01:37.392Z,3.57
2023-04-10T23:04:04.136Z,3.83
2023-04-10T23:06:32.388Z,1.90
2023-04-10T23:08:59.013Z,3.00
2023-04-10T23:11:25.553Z,3.67
2023-04-10T23:13:52.130Z,4.70
2023-04-10T23:16:18.804Z,4.17
2023-04-10T23:18:45.396Z,5.07
2023-04-10T23:21:11.981Z,2.90
2023-04-10T23:23:38.580Z,2.43
2023-04-10T23:26:05.363Z,4.00
2023-04-10T23:28:31.973Z,2.10
2023-04-10T23:30:58.624Z,5.63
2023-04-10T23:33:25.317Z,4.07
2023-04-10T23:35:51.845Z,5.13
2023-04-10T23:38:18.465Z,2.43
2023-04-10T23:40:45.089Z,5.83
2023-04-10T23:43:11.765Z,2.60
2023-04-10T23:45:38.500Z,4.10
2023-04-10T23:48:05.307Z,3.77
2023-04-10T23:50:31.901Z,2.60
2023-04-10T23:52:59.913Z,3.27
2023-04-10T23:55:26.812Z,3.97
2023-04-10T23:57:53.618Z,3.37
